createdAt,value
2019-02-06T00:04:23.113Z,102385.95
2019-02-06T00:09:25.658Z,102389.81
2019-02-06T00:14:29.066Z,102390.19
2019-02-06T00:19:31.703Z,102392.34
2019-02-06T00:24:34.447Z,102388.48
2019-02-06T00:29:37.298Z,102394.11
2019-02-06T00:34:39.734Z,102388.14
2019-02-06T00:39:42.655Z,102384.32
2019-02-06T00:44:44.875Z,102389.05
2019-02-06T00:49:47.476Z,102390.80
2019-02-06T00:54:49.659Z,102392.95
2019-02-06T00:59:52.251Z,102395.91
2019-02-06T01:04:54.788Z,102395.09
2019-02-06T01:09:57.100Z,102395.95
2019-02-06T01:14:59.306Z,102402.34
2019-02-06T01:20:01.524Z,102404.06
2019-02-06T01:25:06.259Z,102400.63
2019-02-06T01:30:16.712Z,102400.63
2019-02-06T01:35:19.337Z,102396.77
2019-02-06T01:40:22.256Z,102390.84
2019-02-06T01:45:24.751Z,102399.39
2019-02-06T01:50:27.120Z,102401.52
2019-02-06T01:55:30.409Z,102399.42
2019-02-06T02:00:33.103Z,102392.98
2019-02-06T02:05:37.849Z,102406.29
2019-02-06T02:10:39.440Z,102399.86
2019-02-06T02:15:41.829Z,102393.41
2019-02-06T02:20:44.202Z,102379.69
2019-02-06T02:25:47.344Z,102392.17
2019-02-06T02:30:52.966Z,102401.18
2019-02-06T02:35:55.285Z,102399.89
2019-02-06T02:40:58.012Z,102396.94
2019-02-06T02:46:00.611Z,102399.94
2019-02-06T02:51:03.189Z,102396.94
2019-02-06T02:56:05.998Z,102392.61
2019-02-06T03:01:27.315Z,102391.78
2019-02-06T03:06:30.109Z,102390.50
2019-02-06T03:11:32.288Z,102385.35
2019-02-06T03:16:34.784Z,102384.11
2019-02-06T03:21:37.388Z,102378.09
2019-02-06T03:26:39.819Z,102378.91
2019-02-06T03:31:42.321Z,102378.05
2019-02-06T03:36:44.683Z,102374.59
2019-02-06T03:41:46.866Z,102375.44
2019-02-06T03:46:49.028Z,102369.44
2019-02-06T03:51:51.160Z,102371.58
2019-02-06T03:56:54.196Z,102364.67
2019-02-06T04:01:56.806Z,102368.92
2019-02-06T04:07:01.354Z,102372.30
2019-02-06T04:12:04.592Z,102371.88
2019-02-06T04:17:06.789Z,102367.16
2019-02-06T04:22:09.089Z,102357.72
2019-02-06T04:27:11.720Z,102359.05
2019-02-06T04:32:14.533Z,102361.63
2019-02-06T04:37:17.533Z,102361.67
2019-02-06T04:42:20.090Z,102357.81
2019-02-06T04:47:22.818Z,102357.38
2019-02-06T04:52:24.973Z,102343.65
2019-02-06T04:57:27.671Z,102344.50
2019-02-06T05:02:30.181Z,102343.66
2019-02-06T05:07:33.280Z,102344.55
2019-02-06T05:12:35.432Z,102341.13
2019-02-06T05:17:38.307Z,102341.63
2019-02-06T05:22:41.268Z,102332.63
2019-02-06T05:27:43.792Z,102330.95
2019-02-06T05:32:47.148Z,102328.03
2019-02-06T05:37:49.917Z,102329.32
2019-02-06T05:42:52.864Z,102339.66
2019-02-06T05:47:55.309Z,102343.98
2019-02-06T05:52:57.863Z,102337.59
2019-02-06T05:58:01.389Z,102332.48
2019-02-06T06:03:04.197Z,102329.56
2019-02-06T06:08:06.777Z,102331.31
2019-02-06T06:13:09.787Z,102339.49
2019-02-06T06:18:12.140Z,102344.24
2019-02-06T06:23:14.353Z,102336.56
2019-02-06T06:28:17.147Z,102328.87
2019-02-06T06:33:19.848Z,102334.09
2019-02-06T06:38:22.692Z,102333.26
2019-02-06T06:43:25.170Z,102328.11
2019-02-06T06:48:27.477Z,102328.55
2019-02-06T06:53:30.013Z,102325.17
2019-02-06T06:58:32.618Z,102324.75
2019-02-06T07:03:35.408Z,102313.58
2019-02-06T07:08:37.569Z,102311.44
2019-02-06T07:13:39.875Z,102306.69
2019-02-06T07:18:42.305Z,102303.27
2019-02-06T07:23:45.374Z,102299.84
2019-02-06T07:28:47.863Z,102284.45
2019-02-06T07:33:50.256Z,102280.59
2019-02-06T07:38:52.539Z,102284.41
2019-02-06T07:43:57.454Z,102289.98
2019-02-06T07:48:59.996Z,102298.13
2019-02-06T07:54:03.209Z,102309.69
2019-02-06T07:59:05.754Z,102296.73
2019-02-06T08:04:08.338Z,102302.94
2019-02-06T08:09:10.733Z,102292.48
2019-02-06T08:14:13.155Z,102284.30
2019-02-06T08:19:15.556Z,102294.73
2019-02-06T08:24:18.302Z,102278.97
2019-02-06T08:29:21.134Z,102270.85
2019-02-06T08:34:24.100Z,102273.59
2019-02-06T08:39:26.834Z,102258.78
2019-02-06T08:44:29.029Z,102264.32
2019-02-06T08:49:32.375Z,102263.90
2019-02-06T08:54:34.591Z,102247.50
2019-02-06T08:59:37.171Z,102245.53
2019-02-06T09:04:39.470Z,102236.14
2019-02-06T09:09:43.579Z,102244.41
2019-02-06T09:14:46.133Z,102235.45
2019-02-06T09:19:48.277Z,102245.25
2019-02-06T09:24:51.009Z,102246.19
2019-02-06T09:29:54.493Z,102243.59
2019-02-06T09:34:57.940Z,102248.17
2019-02-06T09:40:01.142Z,102236.16
2019-02-06T09:45:04.437Z,102238.55
2019-02-06T09:50:11.885Z,102227.14
2019-02-06T09:55:15.083Z,102220.97
2019-02-06T10:00:21.685Z,102209.41
2019-02-06T10:05:24.398Z,102224.28
2019-02-06T10:10:27.371Z,102206.33
2019-02-06T10:15:33.382Z,102200.42
2019-02-06T10:20:45.998Z,102198.55
2019-02-06T10:25:48.655Z,102183.95
2019-02-06T10:30:52.188Z,102156.46
2019-02-06T10:35:55.200Z,102153.13
2019-02-06T10:40:58.376Z,102156.94
2019-02-06T10:46:00.580Z,102142.02
2019-02-06T10:51:08.517Z,102144.64
2019-02-06T10:56:11.863Z,102144.20
2019-02-06T11:01:14.391Z,102139.13
2019-02-06T11:06:16.932Z,102125.32
2019-02-06T11:11:19.568Z,102130.30
2019-02-06T11:16:22.496Z,102118.50
2019-02-06T11:21:24.665Z,102100.66
2019-02-06T11:26:26.872Z,102109.22
2019-02-06T11:31:29.180Z,102105.38
2019-02-06T11:36:32.353Z,102101.19
2019-02-06T11:41:34.933Z,102077.22
2019-02-06T11:46:37.415Z,102068.16
2019-02-06T11:51:40.309Z,102064.15
2019-02-06T11:56:43.655Z,102054.58
2019-02-06T12:01:50.134Z,102033.21
2019-02-06T12:06:52.618Z,102024.25
2019-02-06T12:11:56.126Z,102007.28
2019-02-06T12:16:58.600Z,102014.64
2019-02-06T12:22:01.731Z,102010.70
2019-02-06T12:27:05.795Z,101990.81
2019-02-06T12:32:08.251Z,101993.25
2019-02-06T12:37:10.598Z,101972.70
2019-02-06T12:42:14.066Z,101958.44
2019-02-06T12:47:16.757Z,101958.63
2019-02-06T12:52:18.965Z,101950.23
2019-02-06T12:57:21.785Z,101944.17
2019-02-06T13:02:24.027Z,101938.82
2019-02-06T13:07:26.522Z,101926.02
2019-02-06T13:12:29.404Z,101931.57
2019-02-06T13:17:32.018Z,101920.70
2019-02-06T13:22:34.756Z,101912.11
2019-02-06T13:27:37.127Z,101912.55
2019-02-06T13:32:39.519Z,101909.50
2019-02-06T13:37:42.263Z,101910.63
2019-02-06T13:42:44.865Z,101909.22
2019-02-06T13:47:48.171Z,101896.21
2019-02-06T13:52:51.059Z,101897.55
2019-02-06T13:57:54.210Z,101884.70
2019-02-06T14:02:57.400Z,101868.89
2019-02-06T14:08:12.883Z,101864.61
2019-02-06T14:13:15.747Z,101865.53
2019-02-06T14:18:18.238Z,101857.52
2019-02-06T14:24:05.024Z,101871.24
2019-02-06T14:30:11.247Z,101843.71
2019-02-06T14:36:03.049Z,101842.81
2019-02-06T14:41:46.506Z,101832.00
2019-02-06T14:47:21.757Z,101826.81
2019-02-06T14:52:43.192Z,101834.28
2019-02-06T14:58:41.361Z,101828.26
2019-02-06T15:04:19.420Z,101825.79
2019-02-06T15:10:00.896Z,101830.53
2019-02-06T15:15:56.464Z,101836.00
2019-02-06T15:21:43.204Z,101821.36
2019-02-06T15:27:42.606Z,101827.20
2019-02-06T15:33:36.737Z,101824.23
2019-02-06T15:39:30.760Z,101818.63
2019-02-06T15:45:15.684Z,101808.95
2019-02-06T15:51:14.110Z,101803.66
2019-02-06T15:57:00.004Z,101782.87
2019-02-06T16:02:48.464Z,101780.16
2019-02-06T16:09:12.345Z,101771.74
2019-02-06T16:15:19.696Z,101767.37
2019-02-06T16:21:16.466Z,101765.03
2019-02-06T16:27:41.571Z,101774.44
2019-02-06T16:33:26.760Z,101767.98
2019-02-06T16:39:16.641Z,101758.60
2019-02-06T16:44:39.958Z,101754.80
2019-02-06T16:50:30.000Z,101746.77
2019-02-06T16:56:21.898Z,101746.73
2019-02-06T17:02:35.770Z,101745.06
2019-02-06T17:08:48.621Z,101746.73
2019-02-06T17:14:22.864Z,101740.31
2019-02-06T17:20:24.273Z,101735.18
2019-02-06T17:26:00.450Z,101740.78
2019-02-06T17:31:49.008Z,101742.55
2019-02-06T17:37:45.640Z,101750.66
2019-02-06T17:43:42.325Z,101743.54
2019-02-06T17:49:40.001Z,101732.22
2019-02-06T17:55:22.293Z,101718.91
2019-02-06T18:00:51.028Z,101709.47
2019-02-06T18:05:53.318Z,101678.59
2019-02-06T18:10:58.131Z,101667.84
2019-02-06T18:16:00.136Z,101679.59
2019-02-06T18:21:05.193Z,101681.73
2019-02-06T18:26:08.199Z,101681.64
2019-02-06T18:31:11.100Z,101692.79
2019-02-06T18:36:13.957Z,101695.72
2019-02-06T18:41:16.803Z,101690.94
2019-02-06T18:46:19.039Z,101700.84
2019-02-06T18:51:21.349Z,101702.26
2019-02-06T18:56:23.782Z,101693.14
2019-02-06T19:01:26.787Z,101686.78
2019-02-06T19:06:30.217Z,101679.45
2019-02-06T19:11:32.783Z,101681.09
2019-02-06T19:16:35.468Z,101678.53
2019-02-06T19:21:37.982Z,101660.88
2019-02-06T19:26:40.459Z,101657.45
2019-02-06T19:31:43.360Z,101645.05
2019-02-06T19:36:46.085Z,101634.73
2019-02-06T19:41:48.494Z,101634.30
2019-02-06T19:46:51.140Z,101631.23
2019-02-06T19:51:53.887Z,101633.92
2019-02-06T19:56:56.168Z,101626.24
2019-02-06T20:01:58.872Z,101625.77
2019-02-06T20:07:01.125Z,101620.61
2019-02-06T20:12:03.684Z,101623.72
2019-02-06T20:17:06.156Z,101621.33
2019-02-06T20:22:09.068Z,101620.11
2019-02-06T20:27:11.533Z,101619.31
2019-02-06T20:32:14.082Z,101620.61
2019-02-06T20:37:16.422Z,101611.27
2019-02-06T20:42:18.733Z,101606.55
2019-02-06T20:47:21.753Z,101606.61
2019-02-06T20:52:23.921Z,101607.64
2019-02-06T20:57:26.173Z,101592.67
2019-02-06T21:02:29.632Z,101601.69
2019-02-06T21:07:33.113Z,101602.20
2019-02-06T21:12:35.635Z,101605.19
2019-02-06T21:17:38.437Z,101593.33
2019-02-06T21:22:40.626Z,101589.42
2019-02-06T21:27:43.611Z,101592.44
2019-02-06T21:32:46.436Z,101597.69
2019-02-06T21:37:49.244Z,101591.25
2019-02-06T21:42:52.326Z,101585.27
2019-02-06T21:47:55.128Z,101567.31
2019-02-06T21:52:57.708Z,101563.80
2019-02-06T21:58:00.095Z,101562.53
2019-02-06T22:03:02.626Z,101549.73
2019-02-06T22:08:07.442Z,101548.45
2019-02-06T22:13:11.944Z,101545.02
2019-02-06T22:18:14.646Z,101549.73
2019-02-06T22:23:17.304Z,101539.93
2019-02-06T22:28:19.869Z,101539.49
2019-02-06T22:33:23.521Z,101536.81
2019-02-06T22:38:26.504Z,101503.31
2019-02-06T22:43:29.061Z,101514.06
2019-02-06T22:48:31.997Z,101517.80
2019-02-06T22:53:35.039Z,101533.23
2019-02-06T22:58:37.820Z,101536.60
2019-02-06T23:03:43.800Z,101527.48
2019-02-06T23:08:46.186Z,101515.00
2019-02-06T23:13:49.102Z,101513.30
2019-02-06T23:18:52.140Z,101510.41
2019-02-06T23:23:55.048Z,101506.95
2019-02-06T23:28:58.117Z,101507.77
2019-02-06T23:34:00.771Z,101500.09
2019-02-06T23:39:13.890Z,101479.91
2019-02-06T23:44:16.629Z,101470.38
2019-02-06T23:49:21.051Z,101458.41
2019-02-06T23:54:23.661Z,101464.85
2019-02-06T23:59:26.486Z,101449.11
